首页
METAR-TAF:

METAR-TAF

机场 :

安吉利斯港, 华盛顿, 美国

纬度: 48-07-20N, 经度: 123-30-19W, 海拔: 87米

当前天气观测

该预报发布于42分钟前的09:53 UTC
静风
温度 8°C
湿度 93%
气压 1016 hPa
能見度: 16.1公里
天空无云

METAR: KCLM 190953Z AUTO 00000KT 10SM CLR 08/07 A3001 RMK AO2 SLP163 T00830067

时间: 03:35 (10:35 UTC)

预报

该预报发布于5小时和15分钟前的05:20 UTC
预报有效从19日的 06点(UTC)到 20日的 06点(UTC)
风速7节,风向西转西北
能見度: 10公里
散云层高于25000英尺
从 19日的 1200点(UTC)
风速4节,风向西
能見度: 10公里
散云层高于25000英尺
从 19日的 1800点(UTC)
风速8节,风向东转东北
能見度: 10公里
天空无云
从 20日的 0200点(UTC)
风速6节,风向西转西北
能見度: 10公里
天空无云

TAF: KCLM 190520Z 1906/2006 29007KT P6SM SCT250 FM191200 27004KT P6SM SCT250 FM191800 07008KT P6SM SKC FM200200 30006KT P6SM SKC

超过4000个机场的气象观测和天气预报(METAR&TAF报告)。

可查询的气象台以黄色和红色小点在地图上表示。

将鼠标移到小点上方,可查看气象台名称。

然后点击查看天气观测和预报。

如需切换地图:点击带黑十字的绿色按钮放大地图;点击带横线的绿色按钮缩小地图;或者点击绿色箭头查看邻近地区的地图。


METAR-TAF: